createdAt,value
2023-02-04T00:01:44.346Z,6.08
2023-02-04T00:06:48.536Z,6.08
2023-02-04T00:11:52.728Z,6.09
2023-02-04T00:16:56.848Z,6.04
2023-02-04T00:22:01.050Z,6.02
2023-02-04T00:27:03.323Z,6.01
2023-02-04T00:32:07.674Z,5.99
2023-02-04T00:37:11.607Z,5.99
2023-02-04T00:42:15.796Z,5.99
2023-02-04T00:47:19.938Z,6.00
2023-02-04T00:52:24.133Z,6.02
2023-02-04T00:57:28.274Z,6.00
2023-02-04T01:02:32.506Z,6.03
2023-02-04T01:07:36.707Z,6.05
2023-02-04T01:12:40.794Z,6.06
2023-02-04T01:17:44.953Z,6.04
2023-02-04T01:22:49.096Z,6.03
2023-02-04T01:27:53.262Z,6.03
2023-02-04T01:32:57.446Z,6.06
2023-02-04T01:38:01.599Z,6.04
2023-02-04T01:43:05.744Z,6.02
2023-02-04T01:48:09.919Z,6.02
2023-02-04T01:53:14.062Z,6.01
2023-02-04T01:58:18.232Z,5.99
2023-02-04T02:03:22.413Z,6.00
2023-02-04T02:08:26.563Z,5.99
2023-02-04T02:13:28.809Z,5.96
2023-02-04T02:18:33.023Z,5.95
2023-02-04T02:23:35.247Z,5.93
2023-02-04T02:28:39.434Z,5.94
2023-02-04T02:33:43.580Z,5.93
2023-02-04T02:38:47.800Z,5.92
2023-02-04T02:43:51.917Z,5.89
2023-02-04T02:48:56.074Z,5.92
2023-02-04T02:54:00.253Z,5.90
2023-02-04T02:59:04.425Z,5.90
2023-02-04T03:04:08.565Z,5.89
2023-02-04T03:09:12.740Z,5.88
2023-02-04T03:14:16.935Z,5.85
2023-02-04T03:19:21.047Z,5.81
2023-02-04T03:24:25.242Z,5.77
2023-02-04T03:29:29.934Z,5.83
2023-02-04T03:34:33.664Z,5.82
2023-02-04T03:39:37.725Z,5.84
2023-02-04T03:44:41.843Z,5.84
2023-02-04T03:49:46.037Z,5.84
2023-02-04T03:54:50.214Z,5.84
2023-02-04T03:59:54.364Z,5.84
2023-02-04T04:04:58.537Z,5.84
2023-02-04T04:10:00.813Z,5.83
2023-02-04T04:15:04.980Z,5.85
2023-02-04T04:20:09.166Z,5.85
2023-02-04T04:25:13.314Z,5.84
2023-02-04T04:30:17.458Z,5.85
2023-02-04T04:35:21.616Z,5.84
2023-02-04T04:40:25.788Z,5.83
2023-02-04T04:45:29.950Z,5.81
2023-02-04T04:50:34.335Z,5.82
2023-02-04T04:55:38.262Z,5.85
2023-02-04T05:00:42.473Z,5.85
2023-02-04T05:05:46.582Z,5.83
2023-02-04T05:10:50.770Z,5.78
2023-02-04T05:15:54.921Z,5.79
2023-02-04T05:20:59.090Z,5.77
2023-02-04T05:26:03.266Z,5.77
2023-02-04T05:31:07.465Z,5.75
2023-02-04T05:36:11.548Z,5.76
2023-02-04T05:41:15.716Z,5.74
2023-02-04T05:46:19.889Z,5.71
2023-02-04T05:51:24.078Z,5.67
2023-02-04T05:56:26.355Z,5.66
2023-02-04T06:01:30.524Z,5.65
2023-02-04T06:06:32.750Z,5.64
2023-02-04T06:11:36.967Z,5.64
2023-02-04T06:16:39.229Z,5.66
2023-02-04T06:21:43.381Z,5.67
2023-02-04T06:26:47.524Z,5.67
2023-02-04T06:31:51.802Z,5.66
2023-02-04T06:36:55.879Z,5.64
2023-02-04T06:41:58.148Z,5.65
2023-02-04T06:47:02.298Z,5.63
2023-02-04T06:52:06.463Z,5.62
2023-02-04T06:57:10.608Z,5.61
2023-02-04T07:02:14.883Z,5.60
2023-02-04T07:07:18.951Z,5.58
2023-02-04T07:12:23.110Z,5.55
2023-02-04T07:17:27.281Z,5.52
2023-02-04T07:22:31.441Z,5.49
2023-02-04T07:27:35.606Z,5.47
2023-02-04T07:32:39.737Z,5.48
2023-02-04T07:37:43.965Z,5.52
2023-02-04T07:42:48.073Z,5.55
2023-02-04T07:47:52.233Z,5.59
2023-02-04T07:52:56.411Z,5.64
2023-02-04T07:58:00.579Z,5.68
2023-02-04T08:03:04.773Z,5.73
2023-02-04T08:08:08.912Z,5.74
2023-02-04T08:13:13.062Z,5.77
2023-02-04T08:18:17.195Z,5.82
2023-02-04T08:23:21.409Z,5.86
2023-02-04T08:28:23.638Z,5.90
2023-02-04T08:33:27.834Z,5.92
2023-02-04T08:38:30.070Z,5.95
2023-02-04T08:43:34.270Z,6.05
2023-02-04T08:48:38.416Z,6.16
2023-02-04T08:53:42.567Z,6.29
2023-02-04T08:58:46.768Z,6.39
2023-02-04T09:03:50.933Z,6.47
2023-02-04T09:08:55.081Z,6.56
2023-02-04T09:13:59.226Z,6.62
2023-02-04T09:19:03.440Z,6.68
2023-02-04T09:24:07.604Z,6.68
2023-02-04T09:29:11.758Z,6.66
2023-02-04T09:34:15.935Z,6.79
2023-02-04T09:39:20.051Z,6.88
2023-02-04T09:44:24.212Z,7.00
2023-02-04T09:49:28.398Z,7.08
2023-02-04T09:54:32.553Z,7.11
2023-02-04T09:59:36.740Z,7.11
2023-02-04T10:04:40.874Z,7.20
2023-02-04T10:09:44.998Z,7.29
2023-02-04T10:14:49.189Z,7.37
2023-02-04T10:19:53.363Z,7.58
2023-02-04T10:24:55.610Z,7.67
2023-02-04T10:29:59.783Z,7.59
2023-02-04T10:35:02.099Z,7.63
2023-02-04T10:40:06.193Z,7.58
2023-02-04T10:45:10.385Z,7.58
2023-02-04T10:50:14.553Z,7.67
2023-02-04T10:55:18.732Z,7.71
2023-02-04T11:00:22.872Z,7.78
2023-02-04T11:05:27.048Z,7.86
2023-02-04T11:10:31.587Z,7.85
2023-02-04T11:15:35.426Z,7.90
2023-02-04T11:20:39.541Z,7.99
2023-02-04T11:25:43.692Z,8.12
2023-02-04T11:30:47.898Z,8.25
2023-02-04T11:35:51.985Z,8.40
2023-02-04T11:40:56.142Z,8.42
2023-02-04T11:46:00.419Z,8.39
2023-02-04T11:51:04.493Z,8.36
2023-02-04T11:56:08.635Z,8.36
2023-02-04T12:01:12.788Z,8.38
2023-02-04T12:06:17.053Z,8.40
2023-02-04T12:11:21.181Z,8.49
2023-02-04T12:16:25.356Z,8.47
2023-02-04T12:21:27.668Z,8.40
2023-02-04T12:26:31.794Z,8.38
2023-02-04T12:31:34.201Z,8.32
2023-02-04T12:36:38.142Z,8.32
2023-02-04T12:41:42.304Z,8.32
2023-02-04T12:46:46.544Z,8.27
2023-02-04T12:51:50.645Z,8.40
2023-02-04T12:56:54.824Z,8.38
2023-02-04T13:01:58.969Z,8.34
2023-02-04T13:07:03.772Z,8.35
2023-02-04T13:12:07.276Z,8.40
2023-02-04T13:17:11.459Z,8.42
2023-02-04T13:22:15.599Z,8.48
2023-02-04T13:27:19.752Z,8.49
2023-02-04T13:32:23.932Z,8.43
2023-02-04T13:37:28.062Z,8.53
2023-02-04T13:42:32.257Z,8.74
2023-02-04T13:47:36.435Z,9.00
2023-02-04T13:52:40.577Z,9.20
2023-02-04T13:57:44.749Z,9.23
2023-02-04T14:02:48.925Z,9.39
2023-02-04T14:07:53.050Z,9.27
2023-02-04T14:12:57.220Z,9.15
2023-02-04T14:17:59.521Z,9.15
2023-02-04T14:23:03.650Z,9.08
2023-02-04T14:28:06.029Z,8.96
2023-02-04T14:33:10.087Z,8.80
2023-02-04T14:38:14.223Z,8.65
2023-02-04T14:43:18.423Z,8.65
2023-02-04T14:48:22.568Z,8.69
2023-02-04T14:53:26.729Z,8.74
2023-02-04T14:58:30.880Z,8.84
2023-02-04T15:03:35.069Z,8.76
2023-02-04T15:08:39.205Z,8.68
2023-02-04T15:13:43.356Z,8.67
2023-02-04T15:18:47.521Z,8.60
2023-02-04T15:23:51.730Z,8.59
2023-02-04T15:28:55.944Z,8.48
2023-02-04T15:34:00.016Z,8.42
2023-02-04T15:39:04.174Z,8.49
2023-02-04T15:44:08.391Z,8.53
2023-02-04T15:49:12.521Z,8.32
2023-02-04T15:54:16.665Z,8.24
2023-02-04T15:59:20.845Z,8.12
2023-02-04T16:04:27.542Z,8.02
2023-02-04T16:09:29.170Z,7.86
2023-02-04T16:14:31.437Z,7.65
2023-02-04T16:19:35.569Z,7.47
2023-02-04T16:24:37.883Z,7.28
2023-02-04T16:34:46.181Z,6.80
2023-02-04T16:39:48.461Z,6.54
2023-02-04T16:44:52.625Z,6.14
2023-02-04T16:49:56.757Z,5.95
2023-02-04T16:55:00.964Z,5.85
2023-02-04T17:00:05.102Z,5.62
2023-02-04T17:05:09.288Z,5.47
2023-02-04T17:10:13.426Z,5.30
2023-02-04T17:15:17.591Z,5.16
2023-02-04T17:20:24.274Z,5.09
2023-02-04T17:25:25.904Z,4.85
2023-02-04T17:30:30.159Z,4.71
2023-02-04T17:35:34.529Z,4.58
2023-02-04T17:40:38.448Z,4.49
2023-02-04T17:45:42.569Z,4.50
2023-02-04T17:50:46.730Z,4.53
2023-02-04T17:55:50.899Z,4.54
2023-02-04T18:00:55.117Z,4.45
2023-02-04T18:05:59.277Z,4.35
2023-02-04T18:11:03.398Z,4.10
2023-02-04T18:16:05.769Z,3.95
2023-02-04T18:21:09.803Z,3.91
2023-02-04T18:26:12.100Z,3.87
2023-02-04T18:31:16.815Z,3.78
2023-02-04T18:36:20.470Z,3.79
2023-02-04T18:41:24.606Z,3.83
2023-02-04T18:46:28.740Z,3.79
2023-02-04T18:51:32.900Z,3.73
2023-02-04T18:56:37.081Z,3.73
2023-02-04T19:01:41.241Z,3.71
2023-02-04T19:06:45.404Z,3.69
2023-02-04T19:11:49.535Z,3.70
2023-02-04T19:16:53.779Z,3.78
2023-02-04T19:21:57.912Z,3.86
2023-02-04T19:27:02.089Z,3.87
2023-02-04T19:32:06.233Z,3.93
2023-02-04T19:37:10.388Z,3.98
2023-02-04T19:42:14.780Z,4.09
2023-02-04T19:47:18.693Z,4.12
2023-02-04T19:52:22.878Z,4.16
2023-02-04T19:57:27.039Z,4.16
2023-02-04T20:02:31.242Z,4.14
2023-02-04T20:07:35.373Z,4.18
2023-02-04T20:12:37.668Z,4.22
2023-02-04T20:17:41.791Z,4.23
2023-02-04T20:22:45.981Z,4.21
2023-02-04T20:27:48.383Z,4.19
2023-02-04T20:32:52.381Z,4.17
2023-02-04T20:37:56.714Z,4.09
2023-02-04T20:43:00.752Z,4.02
2023-02-04T20:48:04.909Z,4.02
2023-02-04T20:53:09.045Z,4.02
2023-02-04T20:58:13.429Z,4.04
2023-02-04T21:03:17.471Z,4.04
2023-02-04T21:08:23.501Z,4.03
2023-02-04T21:13:25.714Z,3.99
2023-02-04T21:18:29.900Z,3.89
2023-02-04T21:23:34.072Z,3.82
2023-02-04T21:28:38.215Z,3.71
2023-02-04T21:33:42.381Z,3.72
2023-02-04T21:38:46.551Z,3.77
2023-02-04T21:43:50.682Z,3.82
2023-02-04T21:48:55.011Z,3.83
2023-02-04T21:53:59.032Z,3.87
2023-02-04T21:59:03.188Z,3.91
2023-02-04T22:04:07.384Z,3.92
2023-02-04T22:09:11.524Z,3.96
2023-02-04T22:14:15.948Z,3.97
2023-02-04T22:19:21.955Z,3.95
2023-02-04T22:24:22.152Z,3.90
2023-02-04T22:29:26.266Z,3.86
2023-02-04T22:34:30.487Z,3.90
2023-02-04T22:39:34.617Z,3.88
2023-02-04T22:44:38.805Z,3.86
2023-02-04T22:49:42.942Z,3.92
2023-02-04T22:54:47.136Z,3.91
2023-02-04T22:59:51.263Z,3.93
2023-02-04T23:04:55.414Z,3.96
2023-02-04T23:09:59.628Z,4.02
2023-02-04T23:15:03.758Z,4.07
2023-02-04T23:20:07.911Z,4.11
2023-02-04T23:25:12.090Z,4.17
2023-02-04T23:30:16.265Z,4.17
2023-02-04T23:35:20.432Z,4.17
2023-02-04T23:40:24.580Z,4.18
2023-02-04T23:45:28.767Z,4.18
2023-02-04T23:50:32.902Z,4.19
2023-02-04T23:55:37.084Z,4.23
